地図

経路データ

SID SEASON NUMBER BASIN SUBBASIN NAME ISO_TIME NATURE LAT LON WMO_WIND WMO_PRES WMO_AGENCY TRACK_TYPE DIST2LAND LANDFALL IFLAG USA_AGENCY USA_ATCF_ID USA_LAT USA_LON USA_RECORD USA_STATUS USA_WIND USA_PRES USA_SSHS USA_R34_NE USA_R34_SE USA_R34_SW USA_R34_NW USA_R50_NE USA_R50_SE USA_R50_SW USA_R50_NW USA_R64_NE USA_R64_SE USA_R64_SW USA_R64_NW USA_POCI USA_ROCI USA_RMW USA_EYE TOKYO_LAT TOKYO_LON TOKYO_GRADE TOKYO_WIND TOKYO_PRES TOKYO_R50_DIR TOKYO_R50_LONG TOKYO_R50_SHORT TOKYO_R30_DIR TOKYO_R30_LONG TOKYO_R30_SHORT TOKYO_LAND CMA_LAT CMA_LON CMA_CAT CMA_WIND CMA_PRES HKO_LAT HKO_LON HKO_CAT HKO_WIND HKO_PRES NEWDELHI_LAT NEWDELHI_LON NEWDELHI_GRADE NEWDELHI_WIND NEWDELHI_PRES NEWDELHI_CI NEWDELHI_DP NEWDELHI_POCI REUNION_LAT REUNION_LON REUNION_TYPE REUNION_WIND REUNION_PRES REUNION_TNUM REUNION_CI REUNION_RMW REUNION_R34_NE REUNION_R34_SE REUNION_R34_SW REUNION_R34_NW REUNION_R50_NE REUNION_R50_SE REUNION_R50_SW REUNION_R50_NW REUNION_R64_NE REUNION_R64_SE REUNION_R64_SW REUNION_R64_NW BOM_LAT BOM_LON BOM_TYPE BOM_WIND BOM_PRES BOM_TNUM BOM_CI BOM_RMW BOM_R34_NE BOM_R34_SE BOM_R34_SW BOM_R34_NW BOM_R50_NE BOM_R50_SE BOM_R50_SW BOM_R50_NW BOM_R64_NE BOM_R64_SE BOM_R64_SW BOM_R64_NW BOM_ROCI BOM_POCI BOM_EYE BOM_POS_METHOD BOM_PRES_METHOD NADI_LAT NADI_LON NADI_CAT NADI_WIND NADI_PRES WELLINGTON_LAT WELLINGTON_LON WELLINGTON_WIND WELLINGTON_PRES DS824_LAT DS824_LON DS824_STAGE DS824_WIND DS824_PRES TD9636_LAT TD9636_LON TD9636_STAGE TD9636_WIND TD9636_PRES TD9635_LAT TD9635_LON TD9635_WIND TD9635_PRES TD9635_ROCI NEUMANN_LAT NEUMANN_LON NEUMANN_CLASS NEUMANN_WIND NEUMANN_PRES MLC_LAT MLC_LON MLC_CLASS MLC_WIND MLC_PRES USA_GUST BOM_GUST BOM_GUST_PER REUNION_GUST REUNION_GUST_PER USA_SEAHGT USA_SEARAD_NE USA_SEARAD_SE USA_SEARAD_SW USA_SEARAD_NW STORM_SPEED STORM_DIR
1984355S16129 1985 122 SI WA FRANK 1984-12-19 18:00:00 NR -16.4000 129.000 25 1001 bom main 0 0 ______O___O___ -1 -16.4000 129.000 20 25 1001 112 3 5 -16.4000 129.000 1 28 8 262
1984355S16129 1985 122 SI WA FRANK 1984-12-19 21:00:00 NR -16.4582 128.591 main 0 0 ______P___P___ -1 -16.4627 128.593 20 25 1001 128 -16.4536 128.589 1 28 8 263
1984355S16129 1985 122 SI WA FRANK 1984-12-20 00:00:00 TS -16.5000 128.200 25 1001 bom main 0 0 ______O___O_O_ -1 -16.5000 128.200 20 25 1001 145 3 5 -16.5000 128.200 1 29 -16.5000 128.200 TC 25 1001 7 266
1984355S16129 1985 122 SI WA FRANK 1984-12-20 03:00:00 TS -16.5113 127.841 main 0 0 ______P___P_P_ -1 -16.4999 127.835 20 25 1000 131 -16.5345 127.849 1 29 -16.4877 127.837 TC 27 1000 7 268
1984355S16129 1985 122 SI WA FRANK 1984-12-20 06:00:00 TS -16.5217 127.509 25 1000 bom main 0 0 ______O___P_O_ -1 -16.5000 127.500 20 25 1000 118 3 5 -16.5598 127.526 1 29 -16.5000 127.500 TC 30 1000 6 265
1984355S16129 1985 122 SI WA FRANK 1984-12-20 09:00:00 TS -16.5600 127.205 main 0 0 ______P___P_P_ -1 -16.5499 127.200 20 25 1000 112 -16.5802 127.215 1 29 -16.5499 127.200 TC 30 1000 6 262
1984355S16129 1985 122 SI WA FRANK 1984-12-20 12:00:00 TS -16.6000 126.900 25 1000 bom main 0 0 ______O___O_O_ -1 -16.6000 126.900 20 25 1000 107 3 5 -16.6000 126.900 1 29 -16.6000 126.900 TC 30 1000 6 266
1984355S16129 1985 122 SI WA FRANK 1984-12-20 15:00:00 TS -16.6083 126.556 main 0 0 ______P___P_P_ -1 -16.6000 126.557 20 25 999 142 -16.6249 126.553 1 29 -16.6000 126.557 TC 30 999 7 269
1984355S16129 1985 122 SI WA FRANK 1984-12-20 18:00:00 TS -16.6166 126.200 25 999 bom main 0 0 ______O___P_O_ -1 -16.6000 126.200 20 25 999 178 3 5 -16.6499 126.200 1 30 -16.6000 126.200 TC 30 999 7 266
1984355S16129 1985 122 SI WA FRANK 1984-12-20 21:00:00 TS -16.6583 125.849 main 0 0 ______P___P_P_ -1 -16.6499 125.850 20 25 999 115 -16.6749 125.847 1 30 -16.6499 125.850 TC 30 999 7 263
1984355S16129 1985 122 SI WA FRANK 1984-12-21 00:00:00 TS -16.7000 125.500 25 999 bom main 0 0 ______O___O_O_ -1 -16.7000 125.500 20 25 999 53 3 5 -16.7000 125.500 1 31 -16.7000 125.500 TC 30 999 7 266
1984355S16129 1985 122 SI WA FRANK 1984-12-21 03:00:00 TS -16.7069 125.147 main 0 0 ______P___P_P_ -1 -16.7000 125.142 20 25 998 88 -16.7209 125.156 1 31 -16.7000 125.142 TC 32 998 7 269
1984355S16129 1985 122 SI WA FRANK 1984-12-21 06:00:00 TS -16.7141 124.807 25 998 bom main 0 0 ______O___P_O_ -1 -16.7000 124.800 20 25 998 124 3 5 -16.7424 124.820 1 32 -16.7000 124.800 TC 35 998 6 266
1984355S16129 1985 122 SI WA FRANK 1984-12-21 09:00:00 TS -16.7559 124.485 main 0 0 ______P___P_P_ -1 -16.7500 124.478 20 25 998 97 -16.7678 124.499 1 32 -16.7500 124.478 TC 35 998 6 262
1984355S16129 1985 122 SI WA FRANK 1984-12-21 12:00:00 TS -16.8000 124.200 25 998 bom main 0 0 ______O___O_O_ -1 -16.8000 124.200 20 25 998 70 3 5 -16.8000 124.200 1 33 -16.8000 124.200 TC 35 998 5 264
1984355S16129 1985 122 SI WA FRANK 1984-12-21 15:00:00 TS -16.8064 123.977 main 0 0 ______P___P_P_ -1 -16.7924 124.000 20 27 998 64 -16.8344 123.932 1 33 -16.7924 124.000 TC 35 998 4 266
1984355S16129 1985 122 SI WA FRANK 1984-12-21 18:00:00 TS -16.8257 123.762 30 998 bom main 0 0 ______O___P_O_ -1 -16.8000 123.800 20 30 998 58 3 5 -16.8771 123.685 1 33 -16.8000 123.800 TC 35 998 5 260
1984355S16129 1985 122 SI WA FRANK 1984-12-21 21:00:00 TS -16.8905 123.487 main 22 0 ______P___P_P_ -1 -16.8700 123.507 20 30 997 55 -16.9313 123.445 1 33 -16.8700 123.507 TC 35 997 6 252
1984355S16129 1985 122 SI WA FRANK 1984-12-22 00:00:00 TS -17.0000 123.200 30 997 bom main 0 0 ______O___O_O_ -1 -17.0000 123.200 20 30 997 53 3 5 -17.0000 123.200 1 34 -17.0000 123.200 TC 35 997 6 242
1984355S16129 1985 122 SI WA FRANK 1984-12-22 03:00:00 TS -17.1691 122.945 main 0 0 ______P___P_P_ -1 -17.1862 122.974 20 30 996 61 -17.1060 122.912 1 36 -17.2149 122.950 TC 35 996 6 236
1984355S16129 1985 122 SI WA FRANK 1984-12-22 06:00:00 TS -17.3409 122.673 30 996 bom main 0 0 ______O___P_O_ -1 -17.4000 122.700 20 30 996 70 6 5 -17.2227 122.620 1 38 -17.4000 122.700 TC 35 996 6 243
1984355S16129 1985 122 SI WA FRANK 1984-12-22 09:00:00 TS -17.4577 122.343 30 994 bom main 0 0 ______O___P_P_ -1 -17.6000 122.300 20 30 994 70 1 6 5 -17.3279 122.343 1 40 -17.4451 122.385 TC 40 993 5 263
1984355S16129 1985 122 SI WA FRANK 1984-12-22 12:00:00 TS -17.4000 122.162 40 990 bom main 0 0 O_____O___O_O_ jtwc_sh SH051985 -17.4000 122.900 XX 20 -5 -17.4000 122.100 30 40 990 3.00000 70 3 6 5 -17.4000 122.100 2 43 -17.4000 122.100 TC 45 990 3 288
1984355S16129 1985 122 SI WA FRANK 1984-12-22 14:00:00 TS -17.3782 122.087 40 988 bom main 10 10 P_____O___P_P_ SH051985 -17.3902 122.702 XX 21 -5 -17.4000 122.000 30 40 988 3.00000 76 2 6 5 -17.3959 121.976 2 45 -17.3328 121.976 TC 48 987 2 289
1984355S16129 1985 122 SI WA FRANK 1984-12-22 15:00:00 TS -17.3692 122.067 main 10 10 P_____P___P_P_ SH051985 -17.3876 122.602 XX 22 -5 -17.4150 121.950 30 42 987 76 -17.3863 121.922 2 47 -17.2924 121.927 TC 50 987 2 308
1984355S16129 1985 122 SI WA FRANK 1984-12-22 16:00:00 TS -17.3537 122.039 45 986 bom main 21 21 P_____O___P_P_ SH051985 -17.3877 122.502 XX 23 -5 -17.4000 121.900 30 45 986 3.00000 76 6 8 -17.3733 121.871 2 48 -17.2538 121.884 TC 51 986 3 301
1984355S16129 1985 122 SI WA FRANK 1984-12-22 18:00:00 TS -17.2855 121.919 50 984 bom main 31 31 O_____O___P_O_ jtwc_sh SH051985 -17.4000 122.300 XX 25 -5 -17.2000 121.800 30 50 984 3.50000 70 3 6 8 -17.3422 121.777 2 51 -17.2000 121.800 TC 55 984 3 297
1984355S16129 1985 122 SI WA FRANK 1984-12-22 19:00:00 TS -17.2843 121.895 50 984 bom main 31 31 P_____V___P_P_ SH051985 -17.4136 122.197 XX 25 -5 -17.2000 121.900 30 50 984 3.50000 67 6 8 -17.3266 121.732 2 52 -17.1969 121.750 TC 55 983 2 247
1984355S16129 1985 122 SI WA FRANK 1984-12-22 20:00:00 TS -17.3120 121.846 50 983 bom main 42 42 P_____V___P_P_ SH051985 -17.4308 122.095 XX 26 -5 -17.3000 121.900 30 50 983 3.50000 65 6 8 -17.3128 121.688 2 54 -17.2042 121.700 TC 56 982 4 243
1984355S16129 1985 122 SI WA FRANK 1984-12-22 21:00:00 TS -17.3430 121.772 50 982 bom main 42 42 P_____V___P_P_ SH051985 -17.4500 121.993 XX 27 -5 -17.4000 121.800 30 50 982 3.50000 62 6 8 -17.3020 121.644 2 55 -17.2200 121.650 TC 57 982 4 254
1984355S16129 1985 122 SI WA FRANK 1984-12-22 22:00:00 TS -17.3517 121.698 50 982 bom main 47 47 P_____V___P_P_ SH051985 -17.4691 121.892 XX 28 -5 -17.4000 121.700 30 50 982 3.50000 60 6 8 -17.2954 121.598 2 57 -17.2425 121.600 TC 58 981 4 262
1984355S16129 1985 122 SI WA FRANK 1984-12-22 23:00:00 TS -17.3626 121.624 50 981 bom main 57 57 P_____O___P_P_ SH051985 -17.4864 121.794 XX 29 -5 -17.4000 121.600 30 50 981 3.50000 58 6 8 -17.2943 121.550 2 58 -17.2697 121.550 TC 59 980 4 271
1984355S16129 1985 122 SI WA FRANK 1984-12-23 00:00:00 TS -17.3500 121.550 50 980 bom main 62 62 O_____O___O_O_ jtwc_sh SH051985 -17.5000 121.700 XX 30 -5 -17.3000 121.500 30 50 980 3.50000 58 3 6 8 -17.3000 121.500 2 60 -17.3000 121.500 TC 60 980 4 261
1984355S16129 1985 122 SI WA FRANK 1984-12-23 03:00:00 TS -17.4025 121.364 main 77 77 P_____P___P_P_ SH051985 -17.4999 121.442 XX 32 -5 -17.2999 121.321 30 50 979 77 -17.4102 121.327 2 62 -17.3999 121.365 TC 62 979 4 245
1984355S16129 1985 122 SI WA FRANK 1984-12-23 06:00:00 TS -17.5143 121.185 50 978 bom main 96 96 O_____O___P_O_ jtwc_sh SH051985 -17.5000 121.200 XX 35 -5 -17.5000 121.200 30 50 978 3.50000 97 2 6 8 -17.5573 121.138 2 64 -17.5000 121.200 TC 65 978 4 242
1984355S16129 1985 122 SI WA FRANK 1984-12-23 09:00:00 TS -17.6021 120.961 55 976 bom main 116 116 P_____O___P_P_ SH051985 -17.5500 120.950 XX 37 -5 -17.6000 121.000 30 55 976 4.00000 130 6 8 -17.7008 120.930 2 66 -17.5575 120.965 TC 67 975 6 254
1984355S16129 1985 122 SI WA FRANK 1984-12-23 12:00:00 TS -17.6750 120.600 60 968 bom main 153 153 O_____O___O_O_ jtwc_sh SH051985 -17.6000 120.700 XX 40 -5 -17.7000 120.300 30 60 968 4.00000 91 2 6 8 -17.8000 120.700 4 69 -17.6000 120.700 TC 70 973 4 261
1984355S16129 1985 122 SI WA FRANK 1984-12-23 15:00:00 TS -17.6704 120.512 main 161 161 P_____P___P_P_ SH051985 -17.6149 120.458 XX 42 -5 -17.6053 120.682 30 60 971 91 -17.7962 120.450 4 73 -17.6649 120.458 TC 75 969 2 272
1984355S16129 1985 122 SI WA FRANK 1984-12-23 16:00:00 TS -17.6697 120.453 60 973 bom main 161 161 P_____O___P_P_ SH051985 -17.6133 120.375 XX 43 -5 -17.6000 120.700 30 60 973 4.00000 91 2 6 8 -17.7832 120.362 4 74 -17.6824 120.375 TC 76 968 6 267
1984355S16129 1985 122 SI WA FRANK 1984-12-23 18:00:00 TS -17.6862 120.195 65 966 bom main 187 187 O_____O___P_O_ jtwc_sh SH051985 -17.6000 120.200 XX 45 -5 -17.7000 120.200 40 65 966 4.50000 97 2 6 8 -17.7449 120.180 4 77 -17.7000 120.200 TC 80 966 6 278
1984355S16129 1985 122 SI WA FRANK 1984-12-23 21:00:00 TS -17.5984 119.900 70 962 bom main 220 220 P_____O___P_P_ SH051985 -17.5500 119.900 XX 47 -5 -17.5000 119.900 40 70 962 4.50000 97 2 6 6 -17.6712 119.894 4 81 -17.6725 119.907 TC 67 975 6 281
1984355S16129 1985 122 SI WA FRANK 1984-12-24 00:00:00 TS -17.5750 119.600 70 958 bom main 248 248 O_____O___O_O_ jtwc_sh SH051985 -17.5000 119.600 XX 50 -5 -17.6000 119.600 40 70 958 4.50000 58 3 6 6 -17.6000 119.600 4 86 -17.6000 119.600 TC 55 985 6 279
1984355S16129 1985 122 SI WA FRANK 1984-12-24 03:00:00 TS -17.5113 119.310 75 956 bom main 282 282 P_____O___P_P_ SH051985 -17.4924 119.350 XX 52 -5 -17.5000 119.300 40 75 956 4.50000 157 6 6 -17.5679 119.291 4 87 -17.4850 119.300 TC 75 969 6 282
1984355S16129 1985 122 SI WA FRANK 1984-12-24 06:00:00 TS -17.4607 119.019 80 954 bom main 291 291 O_____O___P_O_ jtwc_sh SH051985 -17.5000 119.100 XX 55 -5 -17.4000 119.000 40 80 954 5.00000 151 6 6 -17.5426 118.978 4 89 -17.4000 119.000 TC 95 954 6 272
1984355S16129 1985 122 SI WA FRANK 1984-12-24 09:00:00 TS -17.4909 118.715 85 950 bom main 293 293 P_____V___P_P_ SH051985 -17.5075 118.793 XX 57 -5 -17.5000 118.700 40 85 950 5.00000 131 6 6 -17.5210 118.675 4 90 -17.4350 118.693 TC 95 953 6 266
1984355S16129 1985 122 SI WA FRANK 1984-12-24 12:00:00 TS -17.5000 118.425 85 952 bom main 300 300 O_____O___O_O_ jtwc_sh SH051985 -17.5000 118.500 XX 60 -5 -17.5000 118.400 40 85 952 5.00000 112 6 6 -17.5000 118.400 4 92 -17.5000 118.400 TC 95 952 5 271
1984355S16129 1985 122 SI WA FRANK 1984-12-24 15:00:00 TS -17.4795 118.174 main 305 305 P_____P___P_P_ SH051985 -17.4499 118.277 XX 62 -5 -17.5068 118.126 40 85 952 101 -17.4464 118.163 4 91 -17.5150 118.127 TC 95 952 4 277
1984355S16129 1985 122 SI WA FRANK 1984-12-24 18:00:00 TS -17.4493 117.964 85 952 bom main 323 323 O_____O___P_O_ jtwc_sh SH051985 -17.4000 118.100 XX 65 -5 -17.5000 117.900 40 85 952 5.00000 91 6 6 -17.3973 117.955 4 91 -17.5000 117.900 TC 95 952 4 281
1984355S16129 1985 122 SI WA FRANK 1984-12-24 21:00:00 TS -17.4074 117.797 main 331 331 P_____P___P_P_ SH051985 -17.3850 117.935 XX 67 -5 -17.4349 117.742 40 82 953 153 -17.3746 117.769 4 91 -17.4349 117.742 TC 95 953 3 279
1984355S16129 1985 122 SI WA FRANK 1984-12-25 00:00:00 TS -17.4000 117.650 80 954 bom main 336 330 O_____O___O_O_ jtwc_sh SH051985 -17.4000 117.800 XX 70 -5 -17.4000 117.600 40 80 954 5.00000 215 4 6 6 -17.4000 117.600 4 91 -17.4000 117.600 TC 95 954 3 259
1984355S16129 1985 122 SI WA FRANK 1984-12-25 03:00:00 TS -17.4660 117.467 main 330 324 P_____P___P_P_ SH051985 -17.4350 117.685 XX 72 -5 -17.4625 117.393 40 80 955 215 -17.5038 117.399 4 89 -17.4625 117.393 TC 92 955 4 240
1984355S16129 1985 122 SI WA FRANK 1984-12-25 06:00:00 TS -17.5888 117.305 80 956 bom main 324 316 O_____O___P_O_ jtwc_sh SH051985 -17.5000 117.600 XX 75 -5 -17.6000 117.200 40 80 956 5.00000 215 9 6 6 -17.6550 117.218 4 88 -17.6000 117.200 TC 90 956 4 223
1984355S16129 1985 122 SI WA FRANK 1984-12-25 09:00:00 TS -17.7553 117.184 main 305 298 P_____P___P_P_ SH051985 -17.5925 117.535 XX 75 -5 -17.8000 117.063 40 80 957 207 -17.8288 117.078 4 87 -17.8000 117.063 TC 90 957 4 207
1984355S16129 1985 122 SI WA FRANK 1984-12-25 12:00:00 TS -17.9250 117.125 80 958 bom main 298 288 O_____O___O_O_ jtwc_sh SH051985 -17.7000 117.500 XX 75 -5 -18.0000 117.000 40 80 958 5.00000 199 6 6 -18.0000 117.000 4 86 -18.0000 117.000 TC 90 958 3 189
1984355S16129 1985 122 SI WA FRANK 1984-12-25 15:00:00 TS -18.0319 117.136 main 288 274 P_____P___P_P_ SH051985 -17.7925 117.492 XX 75 -5 -18.1075 117.020 40 80 959 155 -18.1200 117.010 4 85 -18.1075 117.020 TC 87 959 2 161
1984355S16129 1985 122 SI WA FRANK 1984-12-25 18:00:00 TS -18.1337 117.196 80 960 bom main 274 249 O_____O___P_O_ jtwc_sh SH051985 -17.9000 117.500 XX 75 -5 -18.2000 117.100 40 80 960 5.00000 112 6 6 -18.2350 117.082 4 84 -18.2000 117.100 TC 85 960 3 151
1984355S16129 1985 122 SI WA FRANK 1984-12-25 21:00:00 TS -18.2614 117.269 main 249 238 P_____P___P_P_ SH051985 -18.0275 117.493 XX 75 -5 -18.3330 117.193 40 80 961 139 -18.3575 117.188 4 83 -18.3275 117.200 TC 85 961 3 153
1984355S16129 1985 122 SI WA FRANK 1984-12-26 00:00:00 TS -18.4250 117.350 80 962 bom main 235 214 O_____O___O_O_ jtwc_sh SH051985 -18.2000 117.500 XX 75 -5 -18.5000 117.300 40 80 962 5.00000 166 6 6 -18.5000 117.300 4 83 -18.5000 117.300 TC 85 962 4 160
1984355S16129 1985 122 SI WA FRANK 1984-12-26 03:00:00 TS -18.6408 117.412 75 964 bom main 214 179 P_____O___P_P_ SH051985 -18.4350 117.535 XX 72 -5 -18.7000 117.400 40 75 964 4.50000 64 5 6 6 -18.6784 117.363 4 79 -18.7500 117.350 TC 82 964 5 167
1984355S16129 1985 122 SI WA FRANK 1984-12-26 06:00:00 TS -18.8944 117.457 70 966 bom main 179 158 O_____O___P_O_ jtwc_sh SH051985 -18.7000 117.600 XX 70 -5 -19.0000 117.400 40 70 966 4.50000 80 3 6 6 -18.8774 117.428 4 75 -19.0000 117.400 TC 80 966 5 165
1984355S16129 1985 122 SI WA FRANK 1984-12-26 09:00:00 TS -19.0988 117.543 65 970 bom main 158 133 P_____O___P_P_ SH051985 -18.9425 117.685 XX 67 -5 -19.2000 117.500 40 65 970 4.50000 97 3 6 6 -19.0877 117.504 4 71 -19.1650 117.485 TC 72 971 4 154
1984355S16129 1985 122 SI WA FRANK 1984-12-26 12:00:00 TS -19.2750 117.650 60 976 bom main 129 109 O_____V___O_O_ jtwc_sh SH051985 -19.2000 117.800 XX 65 -5 -19.3000 117.600 30 60 976 4.00000 111 8 6 6 -19.3000 117.600 4 67 -19.3000 117.600 TC 65 976 4 152
1984355S16129 1985 122 SI WA FRANK 1984-12-26 15:00:00 TS -19.4654 117.752 main 105 105 P_____P___P_P_ SH051985 -19.5000 117.935 XX 62 -5 -19.4473 117.647 30 56 980 125 -19.4793 117.684 4 62 -19.4350 117.743 TC 60 980 4 151
1984355S16129 1985 122 SI WA FRANK 1984-12-26 16:00:00 TS -19.5314 117.800 55 982 bom main 105 81 P_____O___P_P_ SH051985 -19.6025 117.987 XX 61 -5 -19.5000 117.700 30 55 982 4.00000 130 8 6 6 -19.5390 117.717 4 61 -19.4842 117.795 TC 58 981 5 140
1984355S16129 1985 122 SI WA FRANK 1984-12-26 18:00:00 TS -19.6655 117.924 50 984 bom main 81 55 O_____O___P_O_ jtwc_sh SH051985 -19.8000 118.100 XX 60 -5 -19.6000 117.900 30 50 984 3.50000 151 6 6 -19.6619 117.796 4 58 -19.6000 117.900 TC 55 984 5 142
1984355S16129 1985 122 SI WA FRANK 1984-12-26 21:00:00 TS -19.8852 118.095 50 986 bom main 55 33 P_____O___P_P_ SH051985 -20.0575 118.285 XX 55 -5 -19.8000 118.100 30 50 986 3.50000 103 6 6 -19.8635 117.960 4 54 -19.8199 118.035 TC 52 986 6 146
1984355S16129 1985 122 SI WA FRANK 1984-12-27 00:00:00 TS -20.1500 118.275 50 988 bom main 33 0 O_____O___O_O_ jtwc_sh SH051985 -20.3000 118.500 XX 50 -5 -20.1000 118.200 30 50 988 3.50000 103 6 6 -20.1000 118.200 2 50 -20.1000 118.200 TC 50 988 7 148
1984355S16129 1985 122 SI WA FRANK 1984-12-27 03:00:00 TS -20.4815 118.486 45 990 bom main 0 0 P_____O___P_P_ SH051985 -20.5500 118.743 XX 45 -5 -20.5000 118.300 30 45 990 3.00000 145 6 6 -20.4337 118.520 2 46 -20.4422 118.383 TC 42 990 8 142
1984355S16129 1985 122 SI WA FRANK 1984-12-27 06:00:00 TS -20.7986 118.819 40 993 bom main 0 0 O_____O___P_O_ jtwc_sh SH051985 -20.8000 119.000 XX 40 -5 -20.8000 118.700 30 40 993 103 6 6 -20.7948 118.921 2 42 -20.8000 118.700 TC 35 993 10 132
1984355S16129 1985 122 SI WA FRANK 1984-12-27 09:00:00 TS -21.1440 119.278 30 997 bom main 0 0 P_____O___P_P_ SH051985 -21.0501 119.252 XX 35 -5 -21.2000 119.200 20 30 997 37 6 6 -21.1334 119.386 2 38 -21.1454 119.262 TC 30 995 11 121
1984355S16129 1985 122 SI WA FRANK 1984-12-27 12:00:00 TS -21.3923 119.869 30 997 bom main 0 0 O_____O___O_O_ jtwc_sh SH051985 -21.3000 119.500 XX 30 -5 -21.4000 119.900 20 30 997 6 6 -21.4000 119.900 1 34 -21.4000 119.900 TC 25 997 11 109
1984355S16129 1985 122 SI WA FRANK 1984-12-27 15:00:00 TS -21.5084 120.421 main 0 0 ______P___P_P_ SH051985 XX -5 -21.4801 120.421 20 30 997 -21.5581 120.448 1 33 -21.4870 120.393 TC 22 997 10 99
1984355S16129 1985 122 SI WA FRANK 1984-12-27 18:00:00 TS -21.5414 120.940 30 998 bom main 0 0 ______O___P_O_ XX -5 -21.5000 120.900 20 30 998 3 5 -21.6242 121.019 1 32 -21.5000 120.900 TC 20 998 10 93
1984355S16129 1985 122 SI WA FRANK 1984-12-27 21:00:00 TS -21.5690 121.542 main 0 0 ______P___P_P_ XX -5 -21.5407 121.505 20 27 999 -21.6282 121.606 1 31 -21.5383 121.515 TC 17 999 12 93
1984355S16129 1985 122 SI WA FRANK 1984-12-28 00:00:00 TS -21.6000 122.200 25 1000 bom main 0 ______O___O_O_ -1 -21.6000 122.200 20 25 1000 3 5 -21.6000 122.200 1 30 -21.6000 122.200 TC 15 1000 12 93

IBTrACS Databaseについて

本データベースは、米国NOAAが公開する1842年以降の世界の熱帯低気圧のベストトラックデータアーカイブInternational Best Track Archive for Climate Stewardship (IBTrACS)を、ウェブで閲覧しやすい形式に変換したものです。

最終更新日:2021-10-21